sensor_id;sensor_type;location;lat;lon;timestamp;P1;durP1;ratioP1;P2;durP2;ratioP2
1747;SDS011;871;47.034;15.394;2024-03-08T00:00:17;40.08;;;1.27;;
1747;SDS011;871;47.034;15.394;2024-03-08T00:02:46;40.20;;;1.45;;
1747;SDS011;871;47.034;15.394;2024-03-08T00:05:13;40.05;;;1.30;;
1747;SDS011;871;47.034;15.394;2024-03-08T00:07:40;40.28;;;1.50;;
1747;SDS011;871;47.034;15.394;2024-03-08T00:10:07;39.85;;;1.30;;
1747;SDS011;871;47.034;15.394;2024-03-08T00:12:40;40.13;;;1.40;;
1747;SDS011;871;47.034;15.394;2024-03-08T00:15:11;39.95;;;1.52;;
1747;SDS011;871;47.034;15.394;2024-03-08T00:17:39;39.85;;;1.30;;
1747;SDS011;871;47.034;15.394;2024-03-08T00:20:05;39.97;;;1.33;;
1747;SDS011;871;47.034;15.394;2024-03-08T00:22:36;39.90;;;1.30;;
1747;SDS011;871;47.034;15.394;2024-03-08T00:25:03;39.90;;;1.30;;
1747;SDS011;871;47.034;15.394;2024-03-08T00:27:29;40.03;;;1.20;;
1747;SDS011;871;47.034;15.394;2024-03-08T00:29:55;40.05;;;1.20;;
1747;SDS011;871;47.034;15.394;2024-03-08T00:32:21;39.88;;;1.20;;
1747;SDS011;871;47.034;15.394;2024-03-08T00:34:49;39.90;;;1.30;;
1747;SDS011;871;47.034;15.394;2024-03-08T00:37:17;39.90;;;1.50;;
1747;SDS011;871;47.034;15.394;2024-03-08T00:39:43;39.92;;;1.40;;
1747;SDS011;871;47.034;15.394;2024-03-08T00:42:09;40.10;;;1.90;;
1747;SDS011;871;47.034;15.394;2024-03-08T00:44:35;39.38;;;1.25;;
1747;SDS011;871;47.034;15.394;2024-03-08T00:47:01;39.72;;;1.30;;
1747;SDS011;871;47.034;15.394;2024-03-08T00:49:28;40.08;;;1.45;;
1747;SDS011;871;47.034;15.394;2024-03-08T00:51:55;40.03;;;1.50;;
1747;SDS011;871;47.034;15.394;2024-03-08T00:54:21;39.78;;;1.50;;
1747;SDS011;871;47.034;15.394;2024-03-08T00:56:47;40.10;;;1.30;;
1747;SDS011;871;47.034;15.394;2024-03-08T00:59:13;40.03;;;1.33;;
1747;SDS011;871;47.034;15.394;2024-03-08T01:01:40;39.83;;;1.50;;
1747;SDS011;871;47.034;15.394;2024-03-08T01:04:06;39.55;;;1.20;;
1747;SDS011;871;47.034;15.394;2024-03-08T01:06:33;39.63;;;1.30;;
1747;SDS011;871;47.034;15.394;2024-03-08T01:08:59;39.70;;;1.50;;
1747;SDS011;871;47.034;15.394;2024-03-08T01:11:25;40.40;;;1.85;;
1747;SDS011;871;47.034;15.394;2024-03-08T01:13:53;40.08;;;1.77;;
1747;SDS011;871;47.034;15.394;2024-03-08T01:16:19;40.10;;;1.45;;
1747;SDS011;871;47.034;15.394;2024-03-08T01:18:46;39.58;;;1.20;;
1747;SDS011;871;47.034;15.394;2024-03-08T01:21:13;40.53;;;2.03;;
1747;SDS011;871;47.034;15.394;2024-03-08T01:23:39;39.78;;;1.40;;
1747;SDS011;871;47.034;15.394;2024-03-08T01:26:05;39.90;;;1.20;;
1747;SDS011;871;47.034;15.394;2024-03-08T01:28:31;40.25;;;1.92;;
1747;SDS011;871;47.034;15.394;2024-03-08T01:30:59;39.67;;;1.20;;
1747;SDS011;871;47.034;15.394;2024-03-08T01:33:26;39.92;;;1.50;;
1747;SDS011;871;47.034;15.394;2024-03-08T01:35:53;39.72;;;1.67;;
1747;SDS011;871;47.034;15.394;2024-03-08T01:38:19;39.53;;;1.35;;
1747;SDS011;871;47.034;15.394;2024-03-08T01:40:48;39.33;;;1.30;;
1747;SDS011;871;47.034;15.394;2024-03-08T01:43:27;39.33;;;1.45;;
1747;SDS011;871;47.034;15.394;2024-03-08T01:45:54;39.30;;;1.80;;
1747;SDS011;871;47.034;15.394;2024-03-08T01:48:21;40.33;;;2.58;;
1747;SDS011;871;47.034;15.394;2024-03-08T01:50:49;39.00;;;1.30;;
1747;SDS011;871;47.034;15.394;2024-03-08T01:53:15;38.97;;;1.35;;
1747;SDS011;871;47.034;15.394;2024-03-08T01:55:42;38.90;;;1.30;;
1747;SDS011;871;47.034;15.394;2024-03-08T01:58:10;38.90;;;1.85;;
1747;SDS011;871;47.034;15.394;2024-03-08T02:00:36;39.30;;;1.63;;
1747;SDS011;871;47.034;15.394;2024-03-08T02:03:05;38.70;;;1.60;;
1747;SDS011;871;47.034;15.394;2024-03-08T02:05:31;39.30;;;1.20;;
1747;SDS011;871;47.034;15.394;2024-03-08T02:07:57;39.47;;;1.60;;
1747;SDS011;871;47.034;15.394;2024-03-08T02:10:23;39.33;;;1.20;;
1747;SDS011;871;47.034;15.394;2024-03-08T02:12:50;38.95;;;1.30;;
1747;SDS011;871;47.034;15.394;2024-03-08T02:15:16;39.10;;;1.30;;
1747;SDS011;871;47.034;15.394;2024-03-08T02:17:42;39.00;;;1.30;;
1747;SDS011;871;47.034;15.394;2024-03-08T02:20:08;38.97;;;1.40;;
1747;SDS011;871;47.034;15.394;2024-03-08T02:22:35;38.83;;;1.40;;
1747;SDS011;871;47.034;15.394;2024-03-08T02:25:02;39.00;;;1.40;;
1747;SDS011;871;47.034;15.394;2024-03-08T02:27:28;40.75;;;3.15;;
1747;SDS011;871;47.034;15.394;2024-03-08T02:29:55;39.22;;;1.30;;
1747;SDS011;871;47.034;15.394;2024-03-08T02:32:24;38.80;;;1.50;;
1747;SDS011;871;47.034;15.394;2024-03-08T02:34:51;39.10;;;1.40;;
1747;SDS011;871;47.034;15.394;2024-03-08T02:37:19;38.85;;;1.40;;
1747;SDS011;871;47.034;15.394;2024-03-08T02:39:45;39.03;;;1.60;;
1747;SDS011;871;47.034;15.394;2024-03-08T02:42:11;38.63;;;1.30;;
1747;SDS011;871;47.034;15.394;2024-03-08T02:44:38;38.80;;;1.40;;
1747;SDS011;871;47.034;15.394;2024-03-08T02:47:08;38.95;;;1.88;;
1747;SDS011;871;47.034;15.394;2024-03-08T02:49:35;38.67;;;1.40;;
1747;SDS011;871;47.034;15.394;2024-03-08T02:52:03;39.35;;;1.92;;
1747;SDS011;871;47.034;15.394;2024-03-08T02:54:30;38.58;;;1.70;;
1747;SDS011;871;47.034;15.394;2024-03-08T02:56:56;38.65;;;1.35;;
1747;SDS011;871;47.034;15.394;2024-03-08T02:59:22;38.80;;;1.40;;
1747;SDS011;871;47.034;15.394;2024-03-08T03:01:48;38.70;;;1.30;;
1747;SDS011;871;47.034;15.394;2024-03-08T03:04:15;39.25;;;2.03;;
1747;SDS011;871;47.034;15.394;2024-03-08T03:06:41;38.83;;;1.30;;
1747;SDS011;871;47.034;15.394;2024-03-08T03:09:07;38.80;;;1.40;;
1747;SDS011;871;47.034;15.394;2024-03-08T03:11:35;38.75;;;1.42;;
1747;SDS011;871;47.034;15.394;2024-03-08T03:14:02;39.00;;;1.50;;
1747;SDS011;871;47.034;15.394;2024-03-08T03:16:30;39.03;;;1.30;;
1747;SDS011;871;47.034;15.394;2024-03-08T03:18:56;38.95;;;1.30;;
1747;SDS011;871;47.034;15.394;2024-03-08T03:21:24;39.08;;;1.30;;
1747;SDS011;871;47.034;15.394;2024-03-08T03:23:50;39.00;;;1.60;;
1747;SDS011;871;47.034;15.394;2024-03-08T03:26:16;38.88;;;1.30;;
1747;SDS011;871;47.034;15.394;2024-03-08T03:28:43;39.53;;;1.20;;
1747;SDS011;871;47.034;15.394;2024-03-08T03:31:09;39.40;;;1.40;;
1747;SDS011;871;47.034;15.394;2024-03-08T03:33:39;39.30;;;1.27;;
1747;SDS011;871;47.034;15.394;2024-03-08T03:36:05;39.83;;;2.08;;
1747;SDS011;871;47.034;15.394;2024-03-08T03:38:33;40.70;;;2.95;;
1747;SDS011;871;47.034;15.394;2024-03-08T03:41:00;39.20;;;1.20;;
1747;SDS011;871;47.034;15.394;2024-03-08T03:43:35;39.60;;;1.30;;
1747;SDS011;871;47.034;15.394;2024-03-08T03:46:04;39.35;;;1.40;;
1747;SDS011;871;47.034;15.394;2024-03-08T03:48:31;39.35;;;1.23;;
1747;SDS011;871;47.034;15.394;2024-03-08T03:50:57;39.78;;;1.98;;
1747;SDS011;871;47.034;15.394;2024-03-08T03:53:23;39.20;;;1.30;;
1747;SDS011;871;47.034;15.394;2024-03-08T03:55:50;39.33;;;1.20;;
1747;SDS011;871;47.034;15.394;2024-03-08T03:58:17;40.15;;;2.25;;
1747;SDS011;871;47.034;15.394;2024-03-08T04:00:47;39.20;;;1.35;;
1747;SDS011;871;47.034;15.394;2024-03-08T04:03:14;39.13;;;1.30;;
1747;SDS011;871;47.034;15.394;2024-03-08T04:05:41;39.25;;;1.27;;
1747;SDS011;871;47.034;15.394;2024-03-08T04:08:07;39.50;;;1.27;;
1747;SDS011;871;47.034;15.394;2024-03-08T04:10:34;39.63;;;1.30;;
1747;SDS011;871;47.034;15.394;2024-03-08T04:13:00;39.65;;;1.27;;
1747;SDS011;871;47.034;15.394;2024-03-08T04:15:26;39.85;;;1.40;;
1747;SDS011;871;47.034;15.394;2024-03-08T04:17:52;39.35;;;1.30;;
1747;SDS011;871;47.034;15.394;2024-03-08T04:20:18;39.80;;;1.30;;
1747;SDS011;871;47.034;15.394;2024-03-08T04:22:44;39.92;;;1.50;;
1747;SDS011;871;47.034;15.394;2024-03-08T04:25:14;39.53;;;1.25;;
1747;SDS011;871;47.034;15.394;2024-03-08T04:27:40;39.70;;;1.20;;
1747;SDS011;871;47.034;15.394;2024-03-08T04:30:06;39.55;;;1.20;;
1747;SDS011;871;47.034;15.394;2024-03-08T04:32:33;39.70;;;1.60;;
1747;SDS011;871;47.034;15.394;2024-03-08T04:34:59;39.53;;;1.40;;
1747;SDS011;871;47.034;15.394;2024-03-08T04:37:28;39.85;;;1.98;;
1747;SDS011;871;47.034;15.394;2024-03-08T04:39:55;39.10;;;1.30;;
1747;SDS011;871;47.034;15.394;2024-03-08T04:42:21;39.20;;;1.40;;
1747;SDS011;871;47.034;15.394;2024-03-08T04:44:47;39.10;;;1.60;;
1747;SDS011;871;47.034;15.394;2024-03-08T04:47:13;38.92;;;1.50;;
1747;SDS011;871;47.034;15.394;2024-03-08T04:49:40;39.13;;;1.45;;
1747;SDS011;871;47.034;15.394;2024-03-08T04:52:06;39.13;;;1.40;;
1747;SDS011;871;47.034;15.394;2024-03-08T04:54:32;38.97;;;1.40;;
1747;SDS011;871;47.034;15.394;2024-03-08T04:56:59;39.00;;;1.30;;
1747;SDS011;871;47.034;15.394;2024-03-08T04:59:25;38.92;;;1.30;;
1747;SDS011;871;47.034;15.394;2024-03-08T05:01:52;39.40;;;1.30;;
1747;SDS011;871;47.034;15.394;2024-03-08T05:04:18;39.35;;;1.33;;
1747;SDS011;871;47.034;15.394;2024-03-08T05:06:44;39.30;;;1.38;;
1747;SDS011;871;47.034;15.394;2024-03-08T05:09:10;39.15;;;1.30;;
1747;SDS011;871;47.034;15.394;2024-03-08T05:11:44;38.95;;;1.40;;
1747;SDS011;871;47.034;15.394;2024-03-08T05:14:10;39.17;;;1.48;;
1747;SDS011;871;47.034;15.394;2024-03-08T05:16:37;39.40;;;1.40;;
1747;SDS011;871;47.034;15.394;2024-03-08T05:19:05;39.58;;;1.67;;
1747;SDS011;871;47.034;15.394;2024-03-08T05:21:31;39.53;;;1.40;;
1747;SDS011;871;47.034;15.394;2024-03-08T05:23:58;39.63;;;1.40;;
1747;SDS011;871;47.034;15.394;2024-03-08T05:26:24;39.60;;;1.50;;
1747;SDS011;871;47.034;15.394;2024-03-08T05:28:50;39.47;;;1.38;;
1747;SDS011;871;47.034;15.394;2024-03-08T05:31:19;39.47;;;1.40;;
1747;SDS011;871;47.034;15.394;2024-03-08T05:33:48;39.35;;;1.30;;
1747;SDS011;871;47.034;15.394;2024-03-08T05:36:14;39.70;;;1.40;;
1747;SDS011;871;47.034;15.394;2024-03-08T05:38:42;39.88;;;1.20;;
1747;SDS011;871;47.034;15.394;2024-03-08T05:41:09;39.85;;;1.30;;
1747;SDS011;871;47.034;15.394;2024-03-08T05:43:35;39.65;;;1.20;;
1747;SDS011;871;47.034;15.394;2024-03-08T05:46:01;39.67;;;1.90;;
1747;SDS011;871;47.034;15.394;2024-03-08T05:48:29;39.83;;;2.03;;
1747;SDS011;871;47.034;15.394;2024-03-08T05:50:57;39.40;;;1.20;;
1747;SDS011;871;47.034;15.394;2024-03-08T05:53:23;39.85;;;1.92;;
1747;SDS011;871;47.034;15.394;2024-03-08T05:55:49;39.63;;;1.95;;
1747;SDS011;871;47.034;15.394;2024-03-08T05:58:15;39.67;;;1.83;;
1747;SDS011;871;47.034;15.394;2024-03-08T06:00:41;39.92;;;2.05;;
1747;SDS011;871;47.034;15.394;2024-03-08T06:03:07;39.42;;;1.38;;
1747;SDS011;871;47.034;15.394;2024-03-08T06:05:34;39.08;;;1.30;;
1747;SDS011;871;47.034;15.394;2024-03-08T06:08:00;39.35;;;1.85;;
1747;SDS011;871;47.034;15.394;2024-03-08T06:10:27;39.35;;;1.40;;
1747;SDS011;871;47.034;15.394;2024-03-08T06:12:54;39.47;;;1.52;;
1747;SDS011;871;47.034;15.394;2024-03-08T06:15:20;39.53;;;1.40;;
1747;SDS011;871;47.034;15.394;2024-03-08T06:17:46;40.72;;;2.10;;
1747;SDS011;871;47.034;15.394;2024-03-08T06:20:12;39.33;;;1.30;;
1747;SDS011;871;47.034;15.394;2024-03-08T06:22:39;39.42;;;1.73;;
1747;SDS011;871;47.034;15.394;2024-03-08T06:25:10;39.63;;;1.40;;
1747;SDS011;871;47.034;15.394;2024-03-08T06:27:39;39.67;;;1.40;;
1747;SDS011;871;47.034;15.394;2024-03-08T06:30:05;39.88;;;1.67;;
1747;SDS011;871;47.034;15.394;2024-03-08T06:32:32;39.85;;;1.50;;
1747;SDS011;871;47.034;15.394;2024-03-08T06:35:00;39.88;;;1.40;;
1747;SDS011;871;47.034;15.394;2024-03-08T06:37:27;39.78;;;1.20;;
1747;SDS011;871;47.034;15.394;2024-03-08T06:39:53;40.25;;;1.27;;
1747;SDS011;871;47.034;15.394;2024-03-08T06:42:20;40.40;;;1.40;;
1747;SDS011;871;47.034;15.394;2024-03-08T06:44:46;40.30;;;1.20;;
1747;SDS011;871;47.034;15.394;2024-03-08T06:47:15;40.20;;;1.30;;
1747;SDS011;871;47.034;15.394;2024-03-08T06:49:42;40.08;;;1.20;;
1747;SDS011;871;47.034;15.394;2024-03-08T06:52:08;40.60;;;1.50;;
1747;SDS011;871;47.034;15.394;2024-03-08T06:54:35;40.50;;;1.98;;
1747;SDS011;871;47.034;15.394;2024-03-08T06:57:01;40.55;;;1.38;;
1747;SDS011;871;47.034;15.394;2024-03-08T06:59:28;40.15;;;1.20;;
1747;SDS011;871;47.034;15.394;2024-03-08T07:01:54;40.40;;;1.30;;
1747;SDS011;871;47.034;15.394;2024-03-08T07:04:21;40.17;;;1.25;;
1747;SDS011;871;47.034;15.394;2024-03-08T07:06:51;40.50;;;1.30;;
1747;SDS011;871;47.034;15.394;2024-03-08T07:09:17;40.72;;;1.20;;
1747;SDS011;871;47.034;15.394;2024-03-08T07:11:44;40.70;;;1.30;;
1747;SDS011;871;47.034;15.394;2024-03-08T07:14:11;40.58;;;1.20;;
1747;SDS011;871;47.034;15.394;2024-03-08T07:16:40;40.85;;;1.40;;
1747;SDS011;871;47.034;15.394;2024-03-08T07:19:07;41.00;;;1.52;;
1747;SDS011;871;47.034;15.394;2024-03-08T07:21:33;41.95;;;3.50;;
1747;SDS011;871;47.034;15.394;2024-03-08T07:23:59;40.45;;;1.30;;
1747;SDS011;871;47.034;15.394;2024-03-08T07:26:25;40.70;;;1.60;;
1747;SDS011;871;47.034;15.394;2024-03-08T07:28:51;40.40;;;1.20;;
1747;SDS011;871;47.034;15.394;2024-03-08T07:31:19;41.00;;;1.90;;
1747;SDS011;871;47.034;15.394;2024-03-08T07:33:51;40.30;;;1.30;;
1747;SDS011;871;47.034;15.394;2024-03-08T07:36:18;41.30;;;2.45;;
1747;SDS011;871;47.034;15.394;2024-03-08T07:38:44;40.45;;;1.83;;
1747;SDS011;871;47.034;15.394;2024-03-08T07:41:12;43.20;;;2.85;;
1747;SDS011;871;47.034;15.394;2024-03-08T07:43:38;41.25;;;2.25;;
1747;SDS011;871;47.034;15.394;2024-03-08T07:46:04;39.60;;;1.35;;
1747;SDS011;871;47.034;15.394;2024-03-08T07:48:30;41.00;;;1.75;;
1747;SDS011;871;47.034;15.394;2024-03-08T07:50:56;39.75;;;1.35;;
1747;SDS011;871;47.034;15.394;2024-03-08T07:53:22;39.50;;;1.55;;
1747;SDS011;871;47.034;15.394;2024-03-08T07:55:51;38.78;;;1.30;;
1747;SDS011;871;47.034;15.394;2024-03-08T07:58:17;40.22;;;2.08;;
1747;SDS011;871;47.034;15.394;2024-03-08T08:00:44;39.75;;;2.45;;
1747;SDS011;871;47.034;15.394;2024-03-08T08:03:10;40.30;;;2.28;;
1747;SDS011;871;47.034;15.394;2024-03-08T08:05:37;39.25;;;1.30;;
1747;SDS011;871;47.034;15.394;2024-03-08T08:08:12;39.15;;;1.20;;
1747;SDS011;871;47.034;15.394;2024-03-08T08:10:38;39.08;;;1.30;;
1747;SDS011;871;47.034;15.394;2024-03-08T08:13:04;39.53;;;1.30;;
1747;SDS011;871;47.034;15.394;2024-03-08T08:15:30;41.03;;;2.22;;
1747;SDS011;871;47.034;15.394;2024-03-08T08:17:59;39.53;;;1.30;;
1747;SDS011;871;47.034;15.394;2024-03-08T08:20:25;39.33;;;1.27;;
1747;SDS011;871;47.034;15.394;2024-03-08T08:22:54;39.55;;;1.25;;
1747;SDS011;871;47.034;15.394;2024-03-08T08:25:20;39.63;;;1.40;;
1747;SDS011;871;47.034;15.394;2024-03-08T08:27:49;39.38;;;1.30;;
1747;SDS011;871;47.034;15.394;2024-03-08T08:30:16;39.25;;;1.20;;
1747;SDS011;871;47.034;15.394;2024-03-08T08:32:42;39.95;;;1.40;;
1747;SDS011;871;47.034;15.394;2024-03-08T08:35:08;39.45;;;1.30;;
1747;SDS011;871;47.034;15.394;2024-03-08T08:37:38;39.63;;;1.20;;
1747;SDS011;871;47.034;15.394;2024-03-08T08:40:04;39.80;;;1.30;;
1747;SDS011;871;47.034;15.394;2024-03-08T08:42:34;39.42;;;1.35;;
1747;SDS011;871;47.034;15.394;2024-03-08T08:45:00;39.92;;;1.65;;
1747;SDS011;871;47.034;15.394;2024-03-08T08:47:27;39.35;;;1.20;;
1747;SDS011;871;47.034;15.394;2024-03-08T08:49:53;40.00;;;1.30;;
1747;SDS011;871;47.034;15.394;2024-03-08T08:52:19;40.00;;;1.30;;
1747;SDS011;871;47.034;15.394;2024-03-08T08:54:45;39.90;;;1.20;;
1747;SDS011;871;47.034;15.394;2024-03-08T08:57:11;40.13;;;1.30;;
1747;SDS011;871;47.034;15.394;2024-03-08T08:59:38;40.38;;;1.40;;
1747;SDS011;871;47.034;15.394;2024-03-08T09:02:05;41.08;;;2.15;;
1747;SDS011;871;47.034;15.394;2024-03-08T09:04:31;40.55;;;1.30;;
1747;SDS011;871;47.034;15.394;2024-03-08T09:06:57;40.95;;;1.40;;
1747;SDS011;871;47.034;15.394;2024-03-08T09:09:23;40.55;;;1.50;;
1747;SDS011;871;47.034;15.394;2024-03-08T09:11:50;40.78;;;1.27;;
1747;SDS011;871;47.034;15.394;2024-03-08T09:14:19;40.88;;;1.38;;
1747;SDS011;871;47.034;15.394;2024-03-08T09:16:45;40.97;;;1.50;;
1747;SDS011;871;47.034;15.394;2024-03-08T09:19:12;41.10;;;1.30;;
1747;SDS011;871;47.034;15.394;2024-03-08T09:21:38;40.97;;;1.20;;
1747;SDS011;871;47.034;15.394;2024-03-08T09:24:05;41.22;;;1.30;;
1747;SDS011;871;47.034;15.394;2024-03-08T09:26:35;41.15;;;1.20;;
1747;SDS011;871;47.034;15.394;2024-03-08T09:29:02;41.42;;;1.50;;
1747;SDS011;871;47.034;15.394;2024-03-08T09:31:28;42.65;;;1.83;;
1747;SDS011;871;47.034;15.394;2024-03-08T09:33:55;41.30;;;1.40;;
1747;SDS011;871;47.034;15.394;2024-03-08T09:36:21;41.17;;;1.20;;
1747;SDS011;871;47.034;15.394;2024-03-08T09:38:47;41.40;;;1.50;;
1747;SDS011;871;47.034;15.394;2024-03-08T09:41:15;41.65;;;1.60;;
1747;SDS011;871;47.034;15.394;2024-03-08T09:43:41;41.92;;;1.40;;
1747;SDS011;871;47.034;15.394;2024-03-08T09:46:07;41.37;;;1.20;;
1747;SDS011;871;47.034;15.394;2024-03-08T09:48:33;41.33;;;1.30;;
1747;SDS011;871;47.034;15.394;2024-03-08T09:51:00;41.30;;;1.20;;
1747;SDS011;871;47.034;15.394;2024-03-08T09:53:26;41.37;;;1.30;;
1747;SDS011;871;47.034;15.394;2024-03-08T09:55:52;41.37;;;1.40;;
1747;SDS011;871;47.034;15.394;2024-03-08T09:58:19;41.47;;;1.53;;
1747;SDS011;871;47.034;15.394;2024-03-08T10:00:45;41.63;;;1.60;;
1747;SDS011;871;47.034;15.394;2024-03-08T10:03:11;41.67;;;1.43;;
1747;SDS011;871;47.034;15.394;2024-03-08T10:05:39;41.38;;;1.50;;
1747;SDS011;871;47.034;15.394;2024-03-08T10:08:05;41.30;;;1.20;;
1747;SDS011;871;47.034;15.394;2024-03-08T10:10:33;41.37;;;1.23;;
1747;SDS011;871;47.034;15.394;2024-03-08T10:13:00;41.40;;;1.20;;
1747;SDS011;871;47.034;15.394;2024-03-08T10:15:29;41.35;;;1.70;;
1747;SDS011;871;47.034;15.394;2024-03-08T10:17:58;42.15;;;1.90;;
1747;SDS011;871;47.034;15.394;2024-03-08T10:20:24;41.27;;;1.20;;
1747;SDS011;871;47.034;15.394;2024-03-08T10:22:51;40.87;;;1.20;;
1747;SDS011;871;47.034;15.394;2024-03-08T10:25:18;41.23;;;1.30;;
1747;SDS011;871;47.034;15.394;2024-03-08T10:27:44;41.37;;;1.50;;
1747;SDS011;871;47.034;15.394;2024-03-08T10:30:14;41.30;;;1.30;;
1747;SDS011;871;47.034;15.394;2024-03-08T10:32:44;41.63;;;1.50;;
1747;SDS011;871;47.034;15.394;2024-03-08T10:35:11;41.50;;;1.57;;
1747;SDS011;871;47.034;15.394;2024-03-08T10:37:50;42.10;;;2.33;;
1747;SDS011;871;47.034;15.394;2024-03-08T10:40:24;41.03;;;1.20;;
1747;SDS011;871;47.034;15.394;2024-03-08T10:42:54;41.53;;;1.30;;
1747;SDS011;871;47.034;15.394;2024-03-08T10:45:39;41.17;;;1.20;;
1747;SDS011;871;47.034;15.394;2024-03-08T10:50:35;41.00;;;1.30;;
1747;SDS011;871;47.034;15.394;2024-03-08T10:53:01;41.00;;;1.47;;
1747;SDS011;871;47.034;15.394;2024-03-08T10:55:28;40.97;;;1.27;;
1747;SDS011;871;47.034;15.394;2024-03-08T10:57:54;41.57;;;1.53;;
1747;SDS011;871;47.034;15.394;2024-03-08T11:00:20;42.40;;;1.63;;
1747;SDS011;871;47.034;15.394;2024-03-08T11:02:51;41.53;;;1.20;;
1747;SDS011;871;47.034;15.394;2024-03-08T11:05:37;41.13;;;1.10;;
1747;SDS011;871;47.034;15.394;2024-03-08T11:08:19;41.10;;;1.30;;
1747;SDS011;871;47.034;15.394;2024-03-08T11:10:52;41.27;;;1.40;;
1747;SDS011;871;47.034;15.394;2024-03-08T11:13:35;41.97;;;1.93;;
1747;SDS011;871;47.034;15.394;2024-03-08T11:16:11;40.80;;;1.40;;
1747;SDS011;871;47.034;15.394;2024-03-08T11:18:37;42.63;;;2.33;;
1747;SDS011;871;47.034;15.394;2024-03-08T11:21:06;41.33;;;1.50;;
1747;SDS011;871;47.034;15.394;2024-03-08T11:23:37;41.47;;;1.60;;
1747;SDS011;871;47.034;15.394;2024-03-08T11:26:17;40.97;;;1.20;;
1747;SDS011;871;47.034;15.394;2024-03-08T11:28:43;41.23;;;1.30;;
1747;SDS011;871;47.034;15.394;2024-03-08T11:33:39;41.00;;;1.10;;
1747;SDS011;871;47.034;15.394;2024-03-08T11:36:21;43.60;;;1.97;;
1747;SDS011;871;47.034;15.394;2024-03-08T11:38:48;41.17;;;1.40;;
1747;SDS011;871;47.034;15.394;2024-03-08T11:41:15;41.00;;;1.13;;
1747;SDS011;871;47.034;15.394;2024-03-08T11:43:41;41.33;;;1.40;;
1747;SDS011;871;47.034;15.394;2024-03-08T11:46:07;40.87;;;1.07;;
1747;SDS011;871;47.034;15.394;2024-03-08T11:48:34;41.37;;;2.10;;
1747;SDS011;871;47.034;15.394;2024-03-08T11:51:01;41.27;;;1.30;;
1747;SDS011;871;47.034;15.394;2024-03-08T11:53:28;43.50;;;2.10;;
1747;SDS011;871;47.034;15.394;2024-03-08T11:56:05;41.07;;;1.30;;
1747;SDS011;871;47.034;15.394;2024-03-08T11:58:31;41.70;;;1.50;;
1747;SDS011;871;47.034;15.394;2024-03-08T12:01:07;41.17;;;1.30;;
1747;SDS011;871;47.034;15.394;2024-03-08T12:03:42;41.07;;;1.30;;
1747;SDS011;871;47.034;15.394;2024-03-08T12:06:08;40.80;;;1.10;;
1747;SDS011;871;47.034;15.394;2024-03-08T12:08:35;41.90;;;2.23;;
1747;SDS011;871;47.034;15.394;2024-03-08T12:11:03;41.17;;;1.20;;
1747;SDS011;871;47.034;15.394;2024-03-08T12:13:33;41.27;;;1.40;;
1747;SDS011;871;47.034;15.394;2024-03-08T12:16:02;41.27;;;1.20;;
1747;SDS011;871;47.034;15.394;2024-03-08T12:18:32;41.60;;;1.87;;
1747;SDS011;871;47.034;15.394;2024-03-08T12:21:05;41.67;;;1.73;;
1747;SDS011;871;47.034;15.394;2024-03-08T12:23:34;41.33;;;1.30;;
1747;SDS011;871;47.034;15.394;2024-03-08T12:26:16;42.50;;;2.43;;
1747;SDS011;871;47.034;15.394;2024-03-08T12:28:42;41.80;;;1.80;;
1747;SDS011;871;47.034;15.394;2024-03-08T12:31:13;41.63;;;1.65;;
1747;SDS011;871;47.034;15.394;2024-03-08T12:36:17;45.10;;;1.60;;
1747;SDS011;871;47.034;15.394;2024-03-08T12:38:43;41.17;;;1.20;;
1747;SDS011;871;47.034;15.394;2024-03-08T12:41:13;41.90;;;1.73;;
1747;SDS011;871;47.034;15.394;2024-03-08T12:43:39;41.27;;;1.27;;
1747;SDS011;871;47.034;15.394;2024-03-08T12:46:05;41.40;;;1.30;;
1747;SDS011;871;47.034;15.394;2024-03-08T12:48:34;41.10;;;1.20;;
1747;SDS011;871;47.034;15.394;2024-03-08T12:51:01;41.00;;;1.30;;
1747;SDS011;871;47.034;15.394;2024-03-08T12:53:27;41.70;;;1.77;;
1747;SDS011;871;47.034;15.394;2024-03-08T12:55:54;41.83;;;1.93;;
1747;SDS011;871;47.034;15.394;2024-03-08T12:58:21;41.35;;;1.20;;
1747;SDS011;871;47.034;15.394;2024-03-08T13:00:47;40.70;;;1.10;;
1747;SDS011;871;47.034;15.394;2024-03-08T13:03:14;41.03;;;1.20;;
1747;SDS011;871;47.034;15.394;2024-03-08T13:05:40;41.33;;;1.97;;
1747;SDS011;871;47.034;15.394;2024-03-08T13:08:07;41.13;;;1.30;;
1747;SDS011;871;47.034;15.394;2024-03-08T13:10:40;41.10;;;1.67;;
1747;SDS011;871;47.034;15.394;2024-03-08T13:13:08;40.90;;;1.50;;
1747;SDS011;871;47.034;15.394;2024-03-08T13:15:35;40.77;;;1.10;;
1747;SDS011;871;47.034;15.394;2024-03-08T13:18:01;41.53;;;2.03;;
1747;SDS011;871;47.034;15.394;2024-03-08T13:20:28;41.00;;;1.30;;
1747;SDS011;871;47.034;15.394;2024-03-08T13:22:54;41.20;;;1.20;;
1747;SDS011;871;47.034;15.394;2024-03-08T13:25:21;40.97;;;1.30;;
1747;SDS011;871;47.034;15.394;2024-03-08T13:27:48;41.13;;;1.20;;
1747;SDS011;871;47.034;15.394;2024-03-08T13:30:15;40.97;;;1.20;;
1747;SDS011;871;47.034;15.394;2024-03-08T13:32:43;41.00;;;1.13;;
1747;SDS011;871;47.034;15.394;2024-03-08T13:35:12;43.80;;;1.93;;
1747;SDS011;871;47.034;15.394;2024-03-08T13:37:42;41.20;;;1.60;;
1747;SDS011;871;47.034;15.394;2024-03-08T13:40:09;40.80;;;1.40;;
1747;SDS011;871;47.034;15.394;2024-03-08T13:42:39;41.67;;;3.20;;
1747;SDS011;871;47.034;15.394;2024-03-08T13:45:07;41.17;;;1.77;;
1747;SDS011;871;47.034;15.394;2024-03-08T13:47:37;41.13;;;1.30;;
1747;SDS011;871;47.034;15.394;2024-03-08T13:50:05;41.07;;;1.10;;
1747;SDS011;871;47.034;15.394;2024-03-08T13:52:32;41.13;;;1.20;;
1747;SDS011;871;47.034;15.394;2024-03-08T13:54:59;41.07;;;1.20;;
1747;SDS011;871;47.034;15.394;2024-03-08T13:57:25;43.72;;;1.90;;
1747;SDS011;871;47.034;15.394;2024-03-08T13:59:52;41.07;;;1.30;;
1747;SDS011;871;47.034;15.394;2024-03-08T14:02:18;42.40;;;2.20;;
1747;SDS011;871;47.034;15.394;2024-03-08T14:04:47;41.00;;;1.30;;
1747;SDS011;871;47.034;15.394;2024-03-08T14:07:14;41.95;;;2.15;;
1747;SDS011;871;47.034;15.394;2024-03-08T14:09:41;41.13;;;1.60;;
1747;SDS011;871;47.034;15.394;2024-03-08T14:12:08;41.90;;;1.63;;
1747;SDS011;871;47.034;15.394;2024-03-08T14:14:34;41.35;;;2.03;;
1747;SDS011;871;47.034;15.394;2024-03-08T14:17:01;42.00;;;1.70;;
1747;SDS011;871;47.034;15.394;2024-03-08T14:19:27;42.77;;;2.10;;
1747;SDS011;871;47.034;15.394;2024-03-08T14:21:55;41.33;;;1.40;;
1747;SDS011;871;47.034;15.394;2024-03-08T14:24:21;41.07;;;1.70;;
1747;SDS011;871;47.034;15.394;2024-03-08T14:26:48;41.10;;;1.20;;
1747;SDS011;871;47.034;15.394;2024-03-08T14:29:15;42.50;;;1.97;;
1747;SDS011;871;47.034;15.394;2024-03-08T14:31:43;42.10;;;2.90;;
1747;SDS011;871;47.034;15.394;2024-03-08T14:34:10;41.17;;;1.70;;
1747;SDS011;871;47.034;15.394;2024-03-08T14:36:36;40.70;;;1.20;;
1747;SDS011;871;47.034;15.394;2024-03-08T14:39:03;42.70;;;2.17;;
1747;SDS011;871;47.034;15.394;2024-03-08T14:41:29;41.77;;;1.90;;
1747;SDS011;871;47.034;15.394;2024-03-08T14:43:56;41.17;;;1.70;;
1747;SDS011;871;47.034;15.394;2024-03-08T14:46:22;40.93;;;1.10;;
1747;SDS011;871;47.034;15.394;2024-03-08T14:48:48;41.00;;;1.23;;
1747;SDS011;871;47.034;15.394;2024-03-08T14:51:16;43.27;;;1.83;;
1747;SDS011;871;47.034;15.394;2024-03-08T14:53:45;40.97;;;1.30;;
1747;SDS011;871;47.034;15.394;2024-03-08T14:56:11;42.87;;;2.60;;
1747;SDS011;871;47.034;15.394;2024-03-08T14:58:41;42.17;;;2.47;;
1747;SDS011;871;47.034;15.394;2024-03-08T15:01:09;40.93;;;1.53;;
1747;SDS011;871;47.034;15.394;2024-03-08T15:03:35;41.63;;;1.50;;
1747;SDS011;871;47.034;15.394;2024-03-08T15:06:02;40.97;;;1.30;;
1747;SDS011;871;47.034;15.394;2024-03-08T15:08:33;41.00;;;1.20;;